createdAt,value
2023-02-09T00:00:41.818Z,-11.28
2023-02-09T00:01:43.773Z,-11.29
2023-02-09T00:02:46.168Z,-11.36
2023-02-09T00:03:48.760Z,-11.14
2023-02-09T00:04:51.284Z,-11.14
2023-02-09T00:05:53.271Z,-11.20
2023-02-09T00:06:56.293Z,-11.24
2023-02-09T00:07:58.861Z,-11.26
2023-02-09T00:09:00.807Z,-11.14
2023-02-09T00:10:04.809Z,-11.21
2023-02-09T00:11:12.297Z,-11.11
2023-02-09T00:12:14.329Z,-11.22
2023-02-09T00:13:16.795Z,-11.26
2023-02-09T00:14:22.098Z,-11.29
2023-02-09T00:15:24.495Z,-11.37
2023-02-09T00:16:26.622Z,-11.40
2023-02-09T00:17:29.000Z,-11.22
2023-02-09T00:18:32.629Z,-11.45
2023-02-09T00:19:34.739Z,-11.52
2023-02-09T00:20:36.753Z,-11.39
2023-02-09T00:21:39.843Z,-11.27
2023-02-09T00:22:41.865Z,-11.28
2023-02-09T00:23:43.922Z,-11.26
2023-02-09T00:24:45.815Z,-11.23
2023-02-09T00:25:47.687Z,-11.36
2023-02-09T00:26:49.798Z,-11.34
2023-02-09T00:27:51.808Z,-11.36
2023-02-09T00:28:53.992Z,-11.31
2023-02-09T00:29:55.860Z,-11.33
2023-02-09T00:30:59.088Z,-11.28
2023-02-09T00:32:01.421Z,-11.39
2023-02-09T00:33:03.615Z,-11.36
2023-02-09T00:34:07.130Z,-11.29
2023-02-09T00:35:09.028Z,-11.26
2023-02-09T00:36:13.453Z,-11.29
2023-02-09T00:37:15.824Z,-11.32
2023-02-09T00:38:17.723Z,-11.28
2023-02-09T00:39:19.722Z,-11.20
2023-02-09T00:40:21.804Z,-11.30
2023-02-09T00:41:23.711Z,-11.40
2023-02-09T00:42:25.618Z,-11.29
2023-02-09T00:43:27.606Z,-11.35
2023-02-09T00:44:29.586Z,-11.43
2023-02-09T00:45:32.028Z,-11.47
2023-02-09T00:46:34.215Z,-11.40
2023-02-09T00:47:36.208Z,-11.44
2023-02-09T00:48:38.193Z,-11.31
2023-02-09T00:49:40.122Z,-11.39
2023-02-09T00:50:42.285Z,-11.39
2023-02-09T00:51:44.465Z,-11.38
2023-02-09T00:52:46.453Z,-11.42
2023-02-09T00:53:48.351Z,-11.43
2023-02-09T00:54:50.360Z,-11.47
2023-02-09T00:55:52.883Z,-11.49
2023-02-09T00:56:55.067Z,-11.49
2023-02-09T00:57:57.150Z,-11.49
2023-02-09T00:58:59.404Z,-11.54
2023-02-09T01:00:03.028Z,-11.51
2023-02-09T01:01:05.295Z,-11.49
2023-02-09T01:02:07.523Z,-11.54
2023-02-09T01:03:10.316Z,-11.63
2023-02-09T01:04:12.390Z,-11.57
2023-02-09T01:05:14.792Z,-11.64
2023-02-09T01:06:17.029Z,-11.61
2023-02-09T01:07:19.315Z,-11.60
2023-02-09T01:08:21.299Z,-11.61
2023-02-09T01:09:23.666Z,-11.64
2023-02-09T01:10:25.739Z,-11.61
2023-02-09T01:11:27.923Z,-11.59
2023-02-09T01:12:31.133Z,-11.61
2023-02-09T01:13:33.099Z,-11.65
2023-02-09T01:14:37.133Z,-11.52
2023-02-09T01:15:39.972Z,-11.50
2023-02-09T01:16:42.347Z,-11.58
2023-02-09T01:17:44.612Z,-11.64
2023-02-09T01:18:46.480Z,-11.81
2023-02-09T01:19:53.878Z,-11.73
2023-02-09T01:20:55.913Z,-11.88
2023-02-09T01:21:58.344Z,-11.82
2023-02-09T01:23:01.118Z,-11.76
2023-02-09T01:24:03.716Z,-11.74
2023-02-09T01:25:07.846Z,-11.72
2023-02-09T01:26:11.977Z,-11.72
2023-02-09T01:27:14.454Z,-11.68
2023-02-09T01:28:16.434Z,-11.74
2023-02-09T01:29:20.413Z,-11.74
2023-02-09T01:30:22.515Z,-11.73
2023-02-09T01:31:30.897Z,-11.78
2023-02-09T01:32:35.649Z,-11.86
2023-02-09T01:33:37.570Z,-12.00
2023-02-09T01:34:39.720Z,-12.18
2023-02-09T01:35:41.825Z,-11.93
2023-02-09T01:36:45.139Z,-11.92
2023-02-09T01:37:47.048Z,-11.85
2023-02-09T01:38:49.538Z,-11.85
2023-02-09T01:39:51.556Z,-11.80
2023-02-09T01:40:53.639Z,-11.75
2023-02-09T01:41:55.546Z,-11.78
2023-02-09T01:42:57.443Z,-11.87
2023-02-09T01:44:05.909Z,-11.77
2023-02-09T01:45:14.651Z,-11.67
2023-02-09T01:46:17.438Z,-11.66
2023-02-09T01:47:19.625Z,-11.72
2023-02-09T01:49:35.042Z,-11.59
2023-02-09T01:50:40.413Z,-11.66
2023-02-09T01:51:49.067Z,-11.67
2023-02-09T01:52:51.305Z,-11.70
2023-02-09T01:53:54.016Z,-11.83
2023-02-09T01:55:02.653Z,-11.73
2023-02-09T01:56:08.587Z,-11.67
2023-02-09T01:57:14.348Z,-11.70
2023-02-09T01:58:20.105Z,-11.48
2023-02-09T01:59:23.534Z,-11.37
2023-02-09T02:00:26.567Z,-11.36
2023-02-09T02:01:28.812Z,-11.33
2023-02-09T02:02:31.865Z,-11.22
2023-02-09T02:03:34.306Z,-11.17
2023-02-09T02:04:41.426Z,-11.24
2023-02-09T02:05:46.788Z,-11.39
2023-02-09T02:06:50.402Z,-11.44
2023-02-09T02:07:59.378Z,-11.42
2023-02-09T02:09:07.928Z,-11.41
2023-02-09T02:10:11.278Z,-11.43
2023-02-09T02:11:14.254Z,-11.40
2023-02-09T02:12:17.572Z,-11.38
2023-02-09T02:13:20.471Z,-11.51
2023-02-09T02:14:31.607Z,-11.55
2023-02-09T02:15:45.997Z,-11.51
2023-02-09T02:16:51.898Z,-11.61
2023-02-09T02:18:17.751Z,-11.75
2023-02-09T02:19:35.228Z,-11.60
2023-02-09T02:20:44.366Z,-11.61
2023-02-09T02:23:06.669Z,-11.54
2023-02-09T02:24:18.342Z,-11.78
2023-02-09T02:25:41.100Z,-11.79
2023-02-09T02:27:01.528Z,-11.62
2023-02-09T02:28:27.157Z,-11.57
2023-02-09T02:29:58.772Z,-11.48
2023-02-09T02:31:30.794Z,-11.40
2023-02-09T02:32:48.787Z,-11.38
2023-02-09T02:35:11.889Z,-11.19
2023-02-09T02:36:17.900Z,-11.49
2023-02-09T02:37:38.645Z,-11.61
2023-02-09T02:38:47.917Z,-11.70
2023-02-09T02:40:02.724Z,-11.67
2023-02-09T02:41:18.184Z,-11.63
2023-02-09T02:42:29.725Z,-11.58
2023-02-09T02:44:01.822Z,-11.58
2023-02-09T02:45:10.589Z,-11.49
2023-02-09T02:46:35.729Z,-11.40
2023-02-09T02:47:41.073Z,-11.44
2023-02-09T02:50:12.160Z,-11.50
2023-02-09T02:51:39.052Z,-11.50
2023-02-09T02:52:44.755Z,-11.40
2023-02-09T02:53:50.749Z,-11.20
2023-02-09T02:54:56.435Z,-11.15
2023-02-09T02:57:18.627Z,-11.12
2023-02-09T02:58:23.899Z,-11.17
2023-02-09T02:59:35.892Z,-11.18
2023-02-09T03:00:44.756Z,-11.17
2023-02-09T03:01:59.417Z,-11.17
2023-02-09T03:03:08.127Z,-11.10
2023-02-09T03:04:12.780Z,-11.23
2023-02-09T03:05:18.325Z,-11.05
2023-02-09T03:06:20.457Z,-11.13
2023-02-09T03:07:22.502Z,-11.08
2023-02-09T03:08:24.386Z,-11.05
2023-02-09T03:09:26.417Z,-11.09
2023-02-09T03:10:31.969Z,-11.10
2023-02-09T03:11:37.416Z,-11.05
2023-02-09T03:12:43.204Z,-10.97
2023-02-09T03:14:10.900Z,-10.91
2023-02-09T03:15:19.705Z,-10.88
2023-02-09T03:16:43.667Z,-10.90
2023-02-09T03:19:45.548Z,-10.63
2023-02-09T03:21:00.008Z,-10.68
2023-02-09T03:22:27.129Z,-10.65
2023-02-09T03:23:44.982Z,-10.59
2023-02-09T03:25:09.041Z,-10.57
2023-02-09T03:26:18.251Z,-10.47
2023-02-09T03:27:26.670Z,-10.48
2023-02-09T03:28:32.439Z,-10.52
2023-02-09T03:29:37.388Z,-10.55
2023-02-09T03:30:41.488Z,-10.60
2023-02-09T03:31:45.327Z,-10.57
2023-02-09T03:32:47.505Z,-10.63
2023-02-09T03:33:50.094Z,-10.53
2023-02-09T03:34:53.604Z,-10.54
2023-02-09T03:35:58.768Z,-10.62
2023-02-09T03:37:01.843Z,-10.53
2023-02-09T03:38:03.845Z,-10.63
2023-02-09T03:39:05.918Z,-10.59
2023-02-09T03:40:09.528Z,-10.65
2023-02-09T03:41:11.705Z,-10.60
2023-02-09T03:42:13.984Z,-10.55
2023-02-09T03:43:16.219Z,-10.66
2023-02-09T03:44:18.243Z,-10.60
2023-02-09T03:45:20.108Z,-10.54
2023-02-09T03:46:22.096Z,-10.64
2023-02-09T03:47:24.061Z,-10.62
2023-02-09T03:48:26.157Z,-10.63
2023-02-09T03:49:34.403Z,-10.58
2023-02-09T03:50:37.141Z,-10.56
2023-02-09T03:51:39.055Z,-10.58
2023-02-09T03:52:41.060Z,-10.62
2023-02-09T03:53:43.035Z,-10.60
2023-02-09T03:54:45.069Z,-10.64
2023-02-09T03:55:47.319Z,-10.57
2023-02-09T03:56:49.526Z,-10.62
2023-02-09T03:57:52.231Z,-10.67
2023-02-09T03:58:54.124Z,-10.67
2023-02-09T03:59:56.160Z,-10.62
2023-02-09T04:01:10.032Z,-10.64
2023-02-09T04:02:12.504Z,-10.60
2023-02-09T04:03:14.524Z,-10.73
2023-02-09T04:04:16.678Z,-10.72
2023-02-09T04:05:18.585Z,-10.71
2023-02-09T04:06:20.894Z,-10.94
2023-02-09T04:07:22.762Z,-10.87
2023-02-09T04:08:25.801Z,-10.75
2023-02-09T04:09:28.096Z,-10.73
2023-02-09T04:10:30.167Z,-10.81
2023-02-09T04:11:32.147Z,-10.90
2023-02-09T04:12:34.538Z,-10.79
2023-02-09T04:13:36.467Z,-11.04
2023-02-09T04:14:39.433Z,-10.93
2023-02-09T04:15:41.415Z,-10.80
2023-02-09T04:16:43.992Z,-10.75
2023-02-09T04:17:46.394Z,-10.76
2023-02-09T04:18:48.280Z,-10.75
2023-02-09T04:19:50.346Z,-10.75
2023-02-09T04:20:52.637Z,-10.74
2023-02-09T04:21:55.708Z,-10.74
2023-02-09T04:22:57.614Z,-10.70
2023-02-09T04:23:59.507Z,-10.70
2023-02-09T04:25:02.271Z,-10.63
2023-02-09T04:26:05.623Z,-10.69
2023-02-09T04:27:07.639Z,-10.67
2023-02-09T04:28:09.963Z,-10.67
2023-02-09T04:29:12.027Z,-10.65
2023-02-09T04:30:14.684Z,-10.67
2023-02-09T04:31:17.098Z,-10.70
2023-02-09T04:32:19.937Z,-10.65
2023-02-09T04:33:23.811Z,-10.69
2023-02-09T04:34:26.068Z,-10.71
2023-02-09T04:35:28.088Z,-10.71
2023-02-09T04:36:30.383Z,-10.73
2023-02-09T04:37:32.280Z,-10.72
2023-02-09T04:38:34.938Z,-10.69
2023-02-09T04:39:38.102Z,-10.72
2023-02-09T04:40:40.129Z,-10.72
2023-02-09T04:41:42.114Z,-10.62
2023-02-09T04:42:45.633Z,-10.67
2023-02-09T04:43:49.741Z,-10.79
2023-02-09T04:44:51.693Z,-10.76
2023-02-09T04:45:54.055Z,-10.82
2023-02-09T04:46:56.167Z,-10.75
2023-02-09T04:47:59.995Z,-10.79
2023-02-09T04:49:04.250Z,-11.02
2023-02-09T04:50:07.955Z,-10.90
2023-02-09T04:51:11.432Z,-10.88
2023-02-09T04:52:13.553Z,-10.90
2023-02-09T04:53:16.022Z,-10.86
2023-02-09T04:54:19.053Z,-10.84
2023-02-09T04:55:21.044Z,-10.82
2023-02-09T04:56:23.214Z,-10.86
2023-02-09T04:57:25.392Z,-10.90
2023-02-09T04:58:28.141Z,-10.88
2023-02-09T04:59:30.162Z,-10.86
2023-02-09T05:00:34.147Z,-10.88
2023-02-09T05:01:38.108Z,-10.90
2023-02-09T05:02:40.087Z,-10.87
2023-02-09T05:03:42.005Z,-10.93
2023-02-09T05:04:43.952Z,-10.91
2023-02-09T05:05:46.058Z,-10.87
2023-02-09T05:06:48.152Z,-10.87
2023-02-09T05:07:50.401Z,-10.81
2023-02-09T05:08:52.443Z,-10.74
2023-02-09T05:09:54.364Z,-10.77
2023-02-09T05:10:56.894Z,-10.77
2023-02-09T05:11:58.790Z,-10.79
2023-02-09T05:13:00.860Z,-10.77
2023-02-09T05:14:02.936Z,-10.76
2023-02-09T05:15:05.605Z,-10.77
2023-02-09T05:16:11.401Z,-10.82
2023-02-09T05:17:13.554Z,-10.89
2023-02-09T05:18:16.166Z,-10.85
2023-02-09T05:19:18.455Z,-10.84
2023-02-09T05:20:20.989Z,-10.90
2023-02-09T05:21:23.457Z,-10.90
2023-02-09T05:22:28.653Z,-10.88
2023-02-09T05:23:31.666Z,-10.90
2023-02-09T05:24:33.728Z,-10.86
2023-02-09T05:25:36.301Z,-10.87
2023-02-09T05:26:38.382Z,-10.84
2023-02-09T05:27:40.770Z,-10.83
2023-02-09T05:28:42.830Z,-10.88
2023-02-09T05:29:45.751Z,-10.83
2023-02-09T05:30:49.125Z,-10.78
2023-02-09T05:31:51.372Z,-10.79
2023-02-09T05:32:54.248Z,-10.77
2023-02-09T05:33:56.123Z,-10.73
2023-02-09T05:34:59.280Z,-10.77
2023-02-09T05:36:01.401Z,-10.68
2023-02-09T05:37:03.388Z,-10.69
2023-02-09T05:38:05.343Z,-10.79
2023-02-09T05:39:07.214Z,-10.91
2023-02-09T05:40:10.839Z,-10.85
2023-02-09T05:41:14.049Z,-10.71
2023-02-09T05:42:16.632Z,-10.67
2023-02-09T05:43:18.634Z,-10.92
2023-02-09T05:44:21.087Z,-10.75
2023-02-09T05:45:23.086Z,-10.74
2023-02-09T05:46:25.355Z,-10.89
2023-02-09T05:47:27.637Z,-10.81
2023-02-09T05:48:29.806Z,-10.73
2023-02-09T05:49:31.809Z,-10.66
2023-02-09T05:50:34.375Z,-10.56
2023-02-09T05:51:36.360Z,-10.51
2023-02-09T05:52:38.276Z,-10.50
2023-02-09T05:53:40.318Z,-10.46
2023-02-09T05:54:43.076Z,-10.40
2023-02-09T05:55:46.805Z,-10.38
2023-02-09T05:56:49.107Z,-10.38
2023-02-09T05:57:51.062Z,-10.41
2023-02-09T05:58:52.930Z,-10.51
2023-02-09T05:59:55.556Z,-10.51
2023-02-09T06:00:57.667Z,-10.39
2023-02-09T06:02:00.820Z,-10.52
2023-02-09T06:03:03.886Z,-10.66
2023-02-09T06:04:06.911Z,-10.70
2023-02-09T06:05:09.001Z,-10.78
2023-02-09T06:06:11.146Z,-10.67
2023-02-09T06:07:13.006Z,-10.63
2023-02-09T06:08:14.891Z,-10.65
2023-02-09T06:09:16.956Z,-10.56
2023-02-09T06:10:19.441Z,-10.44
2023-02-09T06:11:21.356Z,-10.34
2023-02-09T06:12:24.428Z,-10.25
2023-02-09T06:13:26.304Z,-10.22
2023-02-09T06:14:29.144Z,-10.16
2023-02-09T06:15:31.175Z,-10.11
2023-02-09T06:16:33.234Z,-9.97
2023-02-09T06:17:36.230Z,-9.90
2023-02-09T06:18:38.241Z,-9.84
2023-02-09T06:19:40.180Z,-9.82
2023-02-09T06:20:42.273Z,-9.74
2023-02-09T06:21:44.978Z,-9.67
2023-02-09T06:22:47.110Z,-9.73
2023-02-09T06:23:49.199Z,-9.70
2023-02-09T06:24:51.461Z,-9.65
2023-02-09T06:25:53.430Z,-9.55
2023-02-09T06:26:55.643Z,-9.49
2023-02-09T06:27:57.581Z,-9.50
2023-02-09T06:28:59.613Z,-9.43
2023-02-09T06:30:01.859Z,-9.39
2023-02-09T06:31:04.651Z,-9.49
2023-02-09T06:32:07.090Z,-9.60
2023-02-09T06:33:09.127Z,-9.71
2023-02-09T06:34:11.006Z,-9.68
2023-02-09T06:35:12.897Z,-9.66
2023-02-09T06:36:15.069Z,-9.64
2023-02-09T06:37:17.940Z,-9.65
2023-02-09T06:38:21.016Z,-9.58
2023-02-09T06:39:22.893Z,-9.56
2023-02-09T06:40:27.275Z,-9.53
2023-02-09T06:41:29.228Z,-9.32
2023-02-09T06:42:31.218Z,-9.12
2023-02-09T06:43:34.914Z,-9.17
2023-02-09T06:44:36.993Z,-9.26
2023-02-09T06:45:39.503Z,-9.19
2023-02-09T06:46:41.634Z,-9.05
2023-02-09T06:47:45.108Z,-8.95
2023-02-09T06:48:47.450Z,-8.98
2023-02-09T06:49:50.014Z,-8.96
2023-02-09T06:50:52.404Z,-8.94
2023-02-09T06:51:54.832Z,-8.90
2023-02-09T06:52:58.719Z,-8.85
2023-02-09T06:54:00.835Z,-8.84
2023-02-09T06:55:03.445Z,-8.64
2023-02-09T06:56:07.102Z,-8.52
2023-02-09T06:57:09.014Z,-8.57
2023-02-09T06:58:11.485Z,-8.55
2023-02-09T06:59:15.019Z,-8.43
2023-02-09T07:00:18.620Z,-8.33
2023-02-09T07:01:21.819Z,-8.12
2023-02-09T07:02:23.818Z,-7.99
2023-02-09T07:03:26.557Z,-7.82
2023-02-09T07:04:28.482Z,-7.71
2023-02-09T07:05:30.810Z,-7.62
2023-02-09T07:06:33.010Z,-7.52
2023-02-09T07:07:35.252Z,-7.39
2023-02-09T07:08:39.206Z,-7.28
2023-02-09T07:09:41.412Z,-7.21
2023-02-09T07:10:43.880Z,-7.10
2023-02-09T07:11:46.042Z,-7.00
2023-02-09T07:12:48.216Z,-6.99
2023-02-09T07:13:51.157Z,-6.84
2023-02-09T07:14:53.083Z,-6.69
2023-02-09T07:15:56.469Z,-6.58
2023-02-09T07:16:59.091Z,-6.52
2023-02-09T07:18:01.111Z,-6.57
2023-02-09T07:19:04.311Z,-6.57
2023-02-09T07:20:08.617Z,-6.54
2023-02-09T07:21:13.348Z,-6.36
2023-02-09T07:22:15.831Z,-6.29
2023-02-09T07:23:18.636Z,-6.29
2023-02-09T07:24:21.347Z,-6.19
2023-02-09T07:25:23.240Z,-6.21
2023-02-09T07:26:25.472Z,-6.31
2023-02-09T07:27:27.458Z,-6.14
2023-02-09T07:28:29.569Z,-6.32
2023-02-09T07:29:32.728Z,-6.15
2023-02-09T07:30:34.888Z,-6.08
2023-02-09T07:31:37.088Z,-6.06
2023-02-09T07:32:40.689Z,-6.01
2023-02-09T07:33:43.222Z,-5.97
2023-02-09T07:34:45.365Z,-5.89
2023-02-09T07:35:48.293Z,-5.85
2023-02-09T07:36:50.645Z,-5.76
2023-02-09T07:37:52.657Z,-5.70
2023-02-09T07:38:55.660Z,-5.65
2023-02-09T07:39:58.722Z,-5.67
2023-02-09T07:41:03.676Z,-5.68
2023-02-09T07:42:06.054Z,-5.66
2023-02-09T07:43:08.057Z,-5.87
2023-02-09T07:44:09.965Z,-5.75
2023-02-09T07:45:11.970Z,-5.67
2023-02-09T07:46:18.005Z,-5.58
2023-02-09T07:47:20.174Z,-5.60
2023-02-09T07:48:22.251Z,-5.65
2023-02-09T07:49:24.226Z,-5.63
2023-02-09T07:50:26.679Z,-5.55
2023-02-09T07:51:29.673Z,-5.55
2023-02-09T07:52:31.750Z,-5.58
2023-02-09T07:53:33.758Z,-5.46
2023-02-09T07:54:35.674Z,-5.47
2023-02-09T07:55:39.843Z,-5.52
2023-02-09T07:56:41.902Z,-5.39
2023-02-09T07:57:43.778Z,-5.30
2023-02-09T07:58:45.670Z,-5.25
2023-02-09T07:59:47.806Z,-5.14
2023-02-09T08:00:50.854Z,-5.14
2023-02-09T08:01:52.934Z,-5.22
2023-02-09T08:02:54.992Z,-5.15
2023-02-09T08:03:57.738Z,-5.24
2023-02-09T08:05:00.460Z,-5.18
2023-02-09T08:06:25.984Z,-5.12
2023-02-09T08:07:30.508Z,-5.14
2023-02-09T08:08:32.442Z,-5.02
2023-02-09T08:09:35.567Z,-4.96
2023-02-09T08:10:40.959Z,-4.94
2023-02-09T08:11:49.245Z,-5.05
2023-02-09T08:12:53.749Z,-5.09
2023-02-09T08:14:01.111Z,-5.28
2023-02-09T08:15:05.061Z,-5.13
2023-02-09T08:16:11.544Z,-5.15
2023-02-09T08:17:17.264Z,-5.03
2023-02-09T08:18:22.965Z,-4.97
2023-02-09T08:19:25.193Z,-4.85
2023-02-09T08:20:31.038Z,-4.80
2023-02-09T08:21:36.748Z,-4.73
2023-02-09T08:22:41.928Z,-4.68
2023-02-09T08:23:47.339Z,-4.71
2023-02-09T08:24:49.889Z,-4.67
2023-02-09T08:25:53.055Z,-4.78
2023-02-09T08:26:55.248Z,-4.76
2023-02-09T08:27:58.801Z,-4.65
2023-02-09T08:29:01.814Z,-4.52
2023-02-09T08:30:05.157Z,-4.52
2023-02-09T08:31:07.165Z,-4.55
2023-02-09T08:32:09.222Z,-4.43
2023-02-09T08:33:11.394Z,-4.35
2023-02-09T08:34:13.501Z,-4.32
2023-02-09T08:35:16.052Z,-4.27
2023-02-09T08:36:19.903Z,-4.22
2023-02-09T08:37:22.211Z,-4.16
2023-02-09T08:38:25.346Z,-4.19
2023-02-09T08:39:27.349Z,-4.10
2023-02-09T08:40:31.896Z,-4.05
2023-02-09T08:41:34.255Z,-3.97
2023-02-09T08:42:36.222Z,-4.06
2023-02-09T08:43:39.066Z,-3.95
2023-02-09T08:44:40.947Z,-3.96
2023-02-09T08:45:43.172Z,-3.85
2023-02-09T08:46:45.667Z,-3.81
2023-02-09T08:47:47.667Z,-3.87
2023-02-09T08:48:51.560Z,-3.72
2023-02-09T08:49:53.617Z,-3.71
2023-02-09T08:50:55.600Z,-3.67
2023-02-09T08:51:57.514Z,-3.74
2023-02-09T08:52:59.678Z,-3.83
2023-02-09T08:54:02.880Z,-3.80
2023-02-09T08:55:06.292Z,-3.77
2023-02-09T08:56:10.228Z,-3.78
2023-02-09T08:57:12.417Z,-3.93
2023-02-09T08:58:15.393Z,-3.69
2023-02-09T08:59:20.006Z,-3.77
2023-02-09T09:00:21.671Z,-3.71
2023-02-09T09:01:23.616Z,-3.67
2023-02-09T09:02:25.770Z,-3.57
2023-02-09T09:03:30.029Z,-3.48
2023-02-09T09:04:32.374Z,-3.34
2023-02-09T09:05:35.085Z,-3.31
2023-02-09T09:06:38.125Z,-3.27
2023-02-09T09:07:40.362Z,-3.51
2023-02-09T09:08:42.268Z,-3.30
2023-02-09T09:09:44.941Z,-3.19
2023-02-09T09:10:47.075Z,-3.13
2023-02-09T09:11:48.969Z,-3.13
2023-02-09T09:12:51.767Z,-3.24
2023-02-09T09:13:53.672Z,-3.37
2023-02-09T09:14:55.730Z,-3.23
2023-02-09T09:15:58.625Z,-3.21
2023-02-09T09:17:00.801Z,-3.04
2023-02-09T09:18:03.244Z,-2.83
2023-02-09T09:19:05.357Z,-2.83
2023-02-09T09:20:10.112Z,-2.79
2023-02-09T09:21:13.863Z,-2.79
2023-02-09T09:22:15.879Z,-2.74
2023-02-09T09:23:18.688Z,-2.78
2023-02-09T09:24:21.792Z,-2.79
2023-02-09T09:25:23.784Z,-2.76
2023-02-09T09:26:25.867Z,-2.88
2023-02-09T09:27:27.855Z,-2.85
2023-02-09T09:28:30.568Z,-2.80
2023-02-09T09:29:33.915Z,-2.77
2023-02-09T09:30:37.708Z,-2.66
2023-02-09T09:31:39.786Z,-2.62
2023-02-09T09:32:41.944Z,-2.68
2023-02-09T09:33:45.694Z,-2.61
2023-02-09T09:34:47.684Z,-2.49
2023-02-09T09:35:49.681Z,-2.43
2023-02-09T09:36:51.996Z,-2.45
2023-02-09T09:37:55.062Z,-2.50
2023-02-09T09:38:58.104Z,-2.44
2023-02-09T09:40:00.150Z,-2.52
2023-02-09T09:41:04.282Z,-2.53
2023-02-09T09:42:09.089Z,-2.53
2023-02-09T09:43:38.177Z,-2.50
2023-02-09T09:44:47.147Z,-2.40
2023-02-09T09:45:49.663Z,-2.49
2023-02-09T09:46:53.675Z,-2.56
2023-02-09T09:47:56.377Z,-2.58
2023-02-09T09:48:59.378Z,-2.50
2023-02-09T09:50:03.401Z,-2.37
2023-02-09T09:51:21.209Z,-2.29
2023-02-09T09:52:29.979Z,-2.32
2023-02-09T09:53:35.490Z,-2.26
2023-02-09T09:54:37.692Z,-2.25
2023-02-09T09:55:40.391Z,-2.15
2023-02-09T09:56:42.896Z,-2.08
2023-02-09T09:57:45.690Z,-2.00
2023-02-09T09:58:49.076Z,-2.14
2023-02-09T09:59:52.599Z,-2.00
2023-02-09T10:00:55.938Z,-2.15
2023-02-09T10:02:01.664Z,-2.17
2023-02-09T10:04:22.442Z,-1.97
2023-02-09T10:05:27.737Z,-2.20
2023-02-09T10:06:31.282Z,-2.04
2023-02-09T10:07:34.552Z,-2.02
2023-02-09T10:08:45.894Z,-2.05
2023-02-09T10:09:54.341Z,-1.90
2023-02-09T10:11:00.383Z,-2.07
2023-02-09T10:12:06.122Z,-2.00
2023-02-09T10:13:17.972Z,-1.96
2023-02-09T10:14:21.410Z,-1.93
2023-02-09T10:15:30.705Z,-2.06
2023-02-09T10:16:35.678Z,-2.01
2023-02-09T10:17:38.006Z,-1.78
2023-02-09T10:18:39.916Z,-1.73
2023-02-09T10:19:41.785Z,-1.74
2023-02-09T10:20:50.508Z,-1.73
2023-02-09T10:21:54.054Z,-1.89
2023-02-09T10:22:58.873Z,-1.79
2023-02-09T10:25:21.655Z,-1.68
2023-02-09T10:26:27.345Z,-1.71
2023-02-09T10:27:30.371Z,-1.66
2023-02-09T10:28:44.049Z,-1.85
2023-02-09T10:29:46.516Z,-1.80
2023-02-09T10:30:52.005Z,-1.77
2023-02-09T10:32:12.583Z,-1.71
2023-02-09T10:33:15.236Z,-1.68
2023-02-09T10:34:20.611Z,-1.65
2023-02-09T10:35:26.428Z,-1.59
2023-02-09T10:36:32.144Z,-1.51
2023-02-09T10:37:39.491Z,-1.48
2023-02-09T10:38:43.879Z,-1.47
2023-02-09T10:39:50.081Z,-1.41
2023-02-09T10:40:52.400Z,-1.37
2023-02-09T10:41:56.307Z,-1.40
2023-02-09T10:43:01.843Z,-1.35
2023-02-09T10:44:20.224Z,-1.33
2023-02-09T10:45:28.853Z,-1.25
2023-02-09T10:46:32.739Z,-1.17
2023-02-09T10:47:36.097Z,-1.24
2023-02-09T10:48:46.710Z,-1.13
2023-02-09T10:51:17.589Z,-1.03
2023-02-09T10:52:24.704Z,-1.07
2023-02-09T10:53:39.044Z,-0.94
2023-02-09T10:54:53.270Z,-0.96
2023-02-09T10:56:04.753Z,-0.92
2023-02-09T10:57:25.656Z,-0.97
2023-02-09T10:58:30.269Z,-1.08
2023-02-09T10:59:33.861Z,-0.96
2023-02-09T11:00:48.305Z,-1.00
2023-02-09T11:02:01.243Z,-1.03
2023-02-09T11:03:06.923Z,-1.14
2023-02-09T11:04:23.667Z,-1.14
2023-02-09T11:05:29.195Z,-1.08
2023-02-09T11:07:55.923Z,-0.91
2023-02-09T11:09:05.289Z,-1.04
2023-02-09T11:10:12.531Z,-0.96
2023-02-09T11:11:36.809Z,-1.11
2023-02-09T11:13:48.540Z,-0.86
2023-02-09T11:14:50.552Z,-0.94
2023-02-09T11:16:12.994Z,-0.97
2023-02-09T11:17:36.010Z,-0.98
2023-02-09T11:18:40.981Z,-1.01
2023-02-09T11:19:46.657Z,-1.05
2023-02-09T11:20:53.068Z,-0.97
2023-02-09T11:22:11.070Z,-0.97
2023-02-09T11:23:23.648Z,-0.95
2023-02-09T11:24:41.515Z,-0.91
2023-02-09T11:25:55.940Z,-0.89
2023-02-09T11:27:23.687Z,-0.93
2023-02-09T11:29:04.835Z,-0.86
2023-02-09T11:30:11.004Z,-0.79
2023-02-09T11:31:40.482Z,-0.80
2023-02-09T11:33:10.770Z,-0.72
2023-02-09T11:34:34.846Z,-0.87
2023-02-09T11:35:43.683Z,-0.86
2023-02-09T11:36:52.456Z,-0.90
2023-02-09T11:38:04.128Z,-0.83
2023-02-09T11:39:12.874Z,-0.75
2023-02-09T11:40:25.700Z,-1.00
2023-02-09T11:41:34.418Z,-1.00
2023-02-09T11:42:40.129Z,-0.85
2023-02-09T11:43:45.768Z,-0.87
2023-02-09T11:45:00.236Z,-0.87
2023-02-09T11:46:06.080Z,-0.87
2023-02-09T11:47:12.098Z,-0.83
2023-02-09T11:48:17.758Z,-0.90
2023-02-09T11:49:22.970Z,-0.88
2023-02-09T11:50:44.199Z,-0.88
2023-02-09T11:51:48.628Z,-0.85
2023-02-09T11:52:57.492Z,-0.78
2023-02-09T11:54:15.188Z,-0.79
2023-02-09T11:55:30.063Z,-0.80
2023-02-09T11:56:35.981Z,-0.84
2023-02-09T11:57:44.745Z,-0.82
2023-02-09T11:58:55.995Z,-0.74
2023-02-09T12:00:00.502Z,-0.72
2023-02-09T12:01:21.911Z,-0.80
2023-02-09T12:02:28.963Z,-0.76
2023-02-09T12:03:30.920Z,-0.74
2023-02-09T12:04:45.661Z,-0.75
2023-02-09T12:05:48.485Z,-0.74
2023-02-09T12:06:57.395Z,-0.76
2023-02-09T12:08:20.174Z,-0.76
2023-02-09T12:09:31.784Z,-0.78
2023-02-09T12:10:49.841Z,-0.74
2023-02-09T12:12:14.829Z,-0.70
2023-02-09T12:13:41.901Z,-0.71
2023-02-09T12:15:05.649Z,-0.64
2023-02-09T12:16:11.834Z,-0.66
2023-02-09T12:17:20.898Z,-0.62
2023-02-09T12:18:27.841Z,-0.65
2023-02-09T12:19:40.604Z,-0.67
2023-02-09T12:20:52.392Z,-0.66
2023-02-09T12:21:54.691Z,-0.68
2023-02-09T12:23:06.514Z,-0.69
2023-02-09T12:24:31.880Z,-0.61
2023-02-09T12:25:54.678Z,-0.64
2023-02-09T12:26:57.295Z,-0.58
2023-02-09T12:28:09.231Z,-0.59
2023-02-09T12:29:36.011Z,-0.65
2023-02-09T12:30:48.305Z,-0.63
2023-02-09T12:32:06.693Z,-0.63
2023-02-09T12:33:24.577Z,-0.63
2023-02-09T12:34:42.194Z,-0.59
2023-02-09T12:35:59.803Z,-0.59
2023-02-09T12:37:14.867Z,-0.57
2023-02-09T12:38:18.741Z,-0.57
2023-02-09T12:39:24.598Z,-0.63
2023-02-09T12:40:36.838Z,-0.60
2023-02-09T12:41:45.295Z,-0.57
2023-02-09T12:42:53.616Z,-0.56
2023-02-09T12:44:10.888Z,-0.50
2023-02-09T12:46:47.441Z,-0.45
2023-02-09T12:48:02.456Z,-0.56
2023-02-09T12:49:17.206Z,-0.56
2023-02-09T12:50:23.840Z,-0.60
2023-02-09T12:51:41.411Z,-0.62
2023-02-09T12:53:04.128Z,-0.65
2023-02-09T12:54:44.627Z,-0.75
2023-02-09T12:56:10.076Z,-0.68
2023-02-09T12:57:18.903Z,-0.71
2023-02-09T12:58:45.132Z,-0.72
2023-02-09T12:59:55.232Z,-0.71
2023-02-09T13:00:59.545Z,-0.73
2023-02-09T13:02:11.095Z,-0.75
2023-02-09T13:03:16.666Z,-0.82
2023-02-09T13:04:19.826Z,-0.83
2023-02-09T13:05:29.382Z,-0.78
2023-02-09T13:06:47.561Z,-0.79
2023-02-09T13:08:10.213Z,-0.71
2023-02-09T13:09:19.375Z,-0.69
2023-02-09T13:10:42.473Z,-0.68
2023-02-09T13:11:48.285Z,-0.68
2023-02-09T13:12:54.779Z,-0.68
2023-02-09T13:14:03.364Z,-0.69
2023-02-09T13:16:25.840Z,-0.53
2023-02-09T13:17:37.427Z,-0.68
2023-02-09T13:18:55.940Z,-0.67
2023-02-09T13:20:16.918Z,-0.69
2023-02-09T13:21:28.726Z,-0.65
2023-02-09T13:22:53.078Z,-0.63
2023-02-09T13:24:10.862Z,-0.62
2023-02-09T13:25:17.287Z,-0.64
2023-02-09T13:26:25.704Z,-0.70
2023-02-09T13:27:29.210Z,-0.68
2023-02-09T13:28:31.253Z,-0.67
2023-02-09T13:29:33.394Z,-0.70
2023-02-09T13:30:35.755Z,-0.63
2023-02-09T13:31:41.015Z,-0.63
2023-02-09T13:32:46.857Z,-0.64
2023-02-09T13:33:52.656Z,-0.68
2023-02-09T13:35:08.246Z,-0.72
2023-02-09T13:36:35.495Z,-0.63
2023-02-09T13:37:44.773Z,-0.62
2023-02-09T13:38:46.952Z,-0.61
2023-02-09T13:39:58.106Z,-0.61
2023-02-09T13:41:00.594Z,-0.63
2023-02-09T13:43:18.996Z,-0.57
2023-02-09T13:44:23.979Z,-0.69
2023-02-09T13:45:27.703Z,-0.66
2023-02-09T13:46:32.336Z,-0.77
2023-02-09T13:47:34.729Z,-0.77
2023-02-09T13:48:38.402Z,-0.79
2023-02-09T13:49:41.249Z,-0.78
2023-02-09T13:50:49.152Z,-0.77
2023-02-09T13:52:15.344Z,-0.77
2023-02-09T13:53:19.585Z,-0.78
2023-02-09T13:54:21.982Z,-0.79
2023-02-09T13:55:26.255Z,-0.79
2023-02-09T13:56:30.528Z,-0.80
2023-02-09T13:57:38.742Z,-0.81
2023-02-09T13:58:41.157Z,-0.85
2023-02-09T13:59:43.592Z,-0.83
2023-02-09T14:01:01.925Z,-0.83
2023-02-09T14:02:08.225Z,-0.84
2023-02-09T14:03:29.309Z,-0.92
2023-02-09T14:04:34.870Z,-0.93
2023-02-09T14:05:42.194Z,-0.94
2023-02-09T14:06:53.962Z,-1.00
2023-02-09T14:07:56.880Z,-0.94
2023-02-09T14:09:00.742Z,-0.98
2023-02-09T14:10:16.072Z,-1.00
2023-02-09T14:11:43.147Z,-0.98
2023-02-09T14:12:51.875Z,-0.99
2023-02-09T14:14:10.013Z,-1.04